Time;durP1;ratioP1;P1;durP2;ratioP2;P2;SDS_P1;SDS_P2;PMS_P1;PMS_P2;Temp;Humidity;BMP_temperature;BMP_pressure;BME280_temperature;BME280_humidity;BME280_pressure;Samples;Min_cycle;Max_cycle;Signal;HPM_P1;HPM_P2
2022/12/07 15:31:51;;;;;;;3.45;1.42;;;4.60;99.90;;;;;;5107111;27;20329;-62
2022/12/07 15:34:17;;;;;;;3.55;1.85;;;4.50;99.90;;;;;;5106352;28;20462;-61
2022/12/07 15:36:43;;;;;;;2.45;1.50;;;4.50;99.90;;;;;;5105914;28;20091;-61
2022/12/07 15:39:09;;;;;;;4.57;1.40;;;4.60;99.90;;;;;;5106623;28;20030;-61
2022/12/07 15:41:35;;;;;;;2.63;1.35;;;4.60;99.90;;;;;;5106218;28;20460;-62
2022/12/07 15:46:45;;;;;;;3.92;1.98;;;4.70;99.90;;;;;;5111603;28;20031;-62
2022/12/07 15:49:17;;;;;;;2.67;1.25;;;4.80;99.90;;;;;;5106356;28;20758;-61
2022/12/07 15:51:44;;;;;;;3.30;1.45;;;4.80;99.90;;;;;;5093821;28;20040;-61
2022/12/07 15:54:19;;;;;;;2.85;1.30;;;4.90;99.90;;;;;;5095695;28;20034;-61
2022/12/07 15:56:44;;;;;;;2.08;1.65;;;4.80;99.90;;;;;;5096274;28;20473;-61
2022/12/07 15:59:10;;;;;;;5.00;1.98;;;4.90;99.90;;;;;;5091354;28;20031;-61
2022/12/07 16:01:36;;;;;;;6.18;1.90;;;4.90;99.90;;;;;;5085693;28;20024;-62
2022/12/07 16:04:01;;;;;;;4.85;1.70;;;4.90;99.90;;;;;;5085443;28;20085;-62
2022/12/07 16:06:27;;;;;;;2.35;1.58;;;4.90;99.90;;;;;;5088188;28;20017;-61
2022/12/07 16:08:53;;;;;;;4.75;2.13;;;5.00;99.90;;;;;;5087125;28;20459;-62
2022/12/07 16:11:18;;;;;;;6.35;2.03;;;5.00;99.90;;;;;;5088859;28;20028;-62
2022/12/07 16:13:44;;;;;;;2.70;1.80;;;5.00;99.90;;;;;;5107063;28;20361;-62
2022/12/07 16:16:12;;;;;;;4.65;2.03;;;5.00;99.90;;;;;;5108134;28;20020;-62
2022/12/07 16:18:38;;;;;;;6.28;1.98;;;5.00;99.90;;;;;;5107040;28;20422;-62
2022/12/07 16:21:04;;;;;;;6.22;2.20;;;5.00;99.90;;;;;;5104542;28;20023;-62
2022/12/07 16:23:30;;;;;;;6.70;2.25;;;5.10;99.90;;;;;;5090003;28;20046;-62
2022/12/07 16:26:04;;;;;;;5.38;1.60;;;5.10;99.90;;;;;;5090219;28;20694;-61
2022/12/07 16:28:30;;;;;;;2.38;1.52;;;5.10;99.90;;;;;;5092036;28;20477;-61
2022/12/07 16:31:07;;;;;;;6.18;1.42;;;5.00;99.90;;;;;;5085233;28;20083;-62
2022/12/07 16:33:37;;;;;;;2.58;1.33;;;4.90;99.90;;;;;;5086781;28;20024;-62
2022/12/07 16:36:04;;;;;;;2.40;1.30;;;4.70;99.90;;;;;;5090433;28;20028;-61
2022/12/07 16:38:30;;;;;;;2.05;1.10;;;4.50;99.90;;;;;;5111060;28;20019;-61
2022/12/07 16:40:56;;;;;;;2.38;1.05;;;4.40;99.90;;;;;;5101828;28;20032;-62
2022/12/07 16:43:22;;;;;;;1.65;0.95;;;4.30;99.90;;;;;;5072644;28;20055;-62
2022/12/07 16:45:48;;;;;;;4.88;1.02;;;4.20;99.90;;;;;;5071888;28;20028;-61
2022/12/07 16:48:14;;;;;;;1.50;0.90;;;4.20;99.90;;;;;;5075017;28;20025;-62
2022/12/07 16:50:41;;;;;;;1.70;1.05;;;4.10;99.90;;;;;;5072235;28;20532;-62
2022/12/07 16:53:09;;;;;;;2.63;1.02;;;4.10;99.90;;;;;;5072025;28;20024;-62
2022/12/07 16:55:42;;;;;;;3.20;1.60;;;4.10;99.90;;;;;;5082319;28;20565;-61
2022/12/07 16:58:08;;;;;;;3.95;1.73;;;4.00;99.90;;;;;;5090975;28;20020;-61
2022/12/07 17:00:34;;;;;;;3.58;1.85;;;4.00;99.90;;;;;;5092194;28;20546;-61
2022/12/07 17:03:00;;;;;;;7.35;1.63;;;3.90;99.90;;;;;;5088873;28;20032;-61
2022/12/07 17:05:27;;;;;;;3.17;1.63;;;3.90;99.90;;;;;;5092109;28;20490;-61
2022/12/07 17:07:53;;;;;;;3.58;1.77;;;3.90;99.90;;;;;;5090099;28;20424;-62
2022/12/07 17:10:19;;;;;;;2.75;1.63;;;3.90;99.90;;;;;;5093205;28;20488;-61
2022/12/07 17:12:45;;;;;;;4.18;2.30;;;3.90;99.90;;;;;;5093502;28;20066;-61
2022/12/07 17:15:16;;;;;;;6.43;2.30;;;3.90;99.90;;;;;;5091115;28;20103;-61
2022/12/07 17:17:44;;;;;;;6.50;2.40;;;3.90;99.90;;;;;;5072232;28;20075;-61
2022/12/07 17:20:10;;;;;;;4.20;2.22;;;3.80;99.90;;;;;;5077690;28;20020;-61
2022/12/07 17:22:36;;;;;;;6.95;2.67;;;3.90;99.90;;;;;;5089836;28;20024;-62
2022/12/07 17:25:03;;;;;;;4.55;2.13;;;3.90;99.90;;;;;;5089413;28;20024;-62
2022/12/07 17:27:30;;;;;;;6.20;2.28;;;3.90;99.90;;;;;;5071942;28;20028;-61
2022/12/07 17:29:56;;;;;;;5.10;2.75;;;3.90;99.90;;;;;;5071328;28;20052;-61
2022/12/07 17:32:21;;;;;;;5.90;3.28;;;3.90;99.90;;;;;;5072239;28;20036;-61
2022/12/07 17:34:47;;;;;;;6.97;3.53;;;3.90;99.90;;;;;;5085461;28;20024;-61
2022/12/07 17:37:13;;;;;;;6.82;3.60;;;3.90;99.90;;;;;;5093144;28;20163;-62
2022/12/07 17:39:38;;;;;;;10.18;4.43;;;3.90;99.90;;;;;;5092878;28;20384;-62
2022/12/07 17:44:48;;;;;;;8.82;3.83;;;3.90;99.90;;;;;;5091380;28;20035;-61
2022/12/07 17:47:16;;;;;;;7.28;4.43;;;3.90;99.90;;;;;;5087154;28;20036;-61
2022/12/07 17:49:42;;;;;;;9.48;5.20;;;3.90;99.90;;;;;;5071152;28;20392;-59
2022/12/07 17:54:52;;;;;;;8.98;4.93;;;3.90;99.90;;;;;;5070775;28;20385;-60
2022/12/07 17:57:18;;;;;;;7.15;4.65;;;3.90;99.90;;;;;;5071512;28;20017;-60
2022/12/07 17:59:44;;;;;;;9.30;4.10;;;4.00;99.90;;;;;;5071575;28;20009;-61
2022/12/07 18:02:10;;;;;;;9.85;4.85;;;4.00;99.90;;;;;;5075949;28;20027;-61
2022/12/07 18:04:36;;;;;;;8.23;4.53;;;4.00;99.90;;;;;;5091399;28;20461;-60
2022/12/07 18:07:04;;;;;;;7.60;4.53;;;4.00;99.90;;;;;;5091772;28;20020;-60
2022/12/07 18:09:30;;;;;;;8.95;5.03;;;4.00;99.90;;;;;;5091837;28;20837;-60
2022/12/07 18:11:55;;;;;;;8.43;4.75;;;4.00;99.90;;;;;;5090890;28;20103;-61
2022/12/07 18:14:21;;;;;;;8.77;4.55;;;4.00;99.90;;;;;;5091802;28;20027;-61
2022/12/07 18:16:48;;;;;;;8.68;4.65;;;4.00;99.90;;;;;;5088800;28;20525;-61
2022/12/07 18:19:15;;;;;;;7.22;4.00;;;4.00;99.90;;;;;;5080513;28;20048;-61
2022/12/07 18:21:42;;;;;;;7.22;3.80;;;4.00;99.90;;;;;;5084258;28;20023;-61
2022/12/07 18:24:10;;;;;;;8.02;4.22;;;4.00;99.90;;;;;;5090780;28;20066;-61
2022/12/07 18:26:36;;;;;;;6.75;4.43;;;4.00;99.90;;;;;;5089591;28;20430;-61
2022/12/07 18:29:04;;;;;;;5.82;3.53;;;3.90;99.90;;;;;;5091369;28;20050;-61
2022/12/07 18:31:30;;;;;;;5.82;3.58;;;4.00;99.90;;;;;;5089639;28;20075;-61
2022/12/07 18:34:00;;;;;;;6.38;3.17;;;3.90;99.90;;;;;;5087833;28;20052;-61
2022/12/07 18:36:25;;;;;;;6.10;3.42;;;3.90;99.90;;;;;;5085889;28;20054;-61
2022/12/07 18:38:51;;;;;;;8.23;4.20;;;3.90;99.90;;;;;;5083356;28;20465;-62
2022/12/07 18:41:17;;;;;;;7.72;3.45;;;3.90;99.90;;;;;;5071046;28;20047;-61
2022/12/07 18:43:43;;;;;;;6.97;3.58;;;3.90;99.90;;;;;;5085251;28;20086;-62
2022/12/07 18:46:15;;;;;;;6.97;3.70;;;3.90;99.90;;;;;;5088126;28;20024;-63
2022/12/07 18:48:40;;;;;;;7.93;3.95;;;3.90;99.90;;;;;;5072519;28;20033;-63
2022/12/07 18:51:08;;;;;;;8.35;4.25;;;3.90;99.90;;;;;;5069296;28;20085;-63
2022/12/07 18:53:35;;;;;;;7.25;4.10;;;3.90;99.90;;;;;;5070655;28;20027;-62
2022/12/07 18:56:22;;;;;;;7.93;3.35;;;4.00;99.90;;;;;;5072346;28;20185;-61
2022/12/07 19:01:50;;;;;;;7.45;3.58;;;3.90;99.90;;;;;;5070673;28;20424;-61
2022/12/07 19:04:17;;;;;;;7.45;4.10;;;3.90;99.90;;;;;;5069327;28;20028;-61
2022/12/07 19:06:44;;;;;;;9.80;3.97;;;3.90;99.90;;;;;;5070032;28;20384;-62
2022/12/07 19:09:11;;;;;;;6.93;3.58;;;3.90;99.90;;;;;;5069987;28;20362;-62
2022/12/07 19:11:49;;;;;;;8.85;3.67;;;3.90;99.90;;;;;;5073337;28;20063;-62
2022/12/07 19:14:18;;;;;;;6.28;3.35;;;3.90;99.90;;;;;;5087540;28;20016;-62
2022/12/07 19:16:44;;;;;;;8.73;3.70;;;3.90;99.90;;;;;;5089761;28;20039;-62
2022/12/07 19:19:10;;;;;;;8.80;3.78;;;3.90;99.90;;;;;;5086183;28;20027;-63
2022/12/07 19:21:36;;;;;;;6.45;3.80;;;3.90;99.90;;;;;;5079717;28;20107;-63
2022/12/07 19:24:04;;;;;;;9.95;4.22;;;3.90;99.90;;;;;;5069337;28;20060;-61
2022/12/07 19:26:29;;;;;;;9.27;4.00;;;3.90;99.90;;;;;;5070648;28;20020;-61
2022/12/07 19:28:55;;;;;;;6.65;4.07;;;3.90;99.90;;;;;;5067670;28;20028;-61
2022/12/07 19:31:20;;;;;;;5.35;3.50;;;3.90;99.90;;;;;;5069793;28;20118;-61
2022/12/07 19:33:46;;;;;;;6.78;3.97;;;3.90;99.90;;;;;;5071404;28;20013;-62
2022/12/07 19:36:12;;;;;;;8.48;3.72;;;3.90;99.90;;;;;;5070625;28;20473;-61
2022/12/07 19:38:37;;;;;;;7.43;3.42;;;3.90;99.90;;;;;;5079899;28;20127;-61
2022/12/07 19:41:54;;;;;;;8.30;3.85;;;3.90;99.90;;;;;;5077398;28;20122;-61
2022/12/07 19:43:55;;;;;;;12.38;3.97;;;3.90;99.90;;;;;;5069914;28;20078;-61
2022/12/07 19:46:21;;;;;;;11.68;4.07;;;3.90;99.90;;;;;;5070082;28;20021;-61
2022/12/07 19:48:46;;;;;;;9.55;3.65;;;3.90;99.90;;;;;;5067286;28;20036;-61
2022/12/07 19:51:12;;;;;;;5.18;2.97;;;3.90;99.90;;;;;;5069826;28;20087;-61
